createdAt,value
2023-03-05T00:06:59.808Z,1.83
2023-03-05T00:10:05.466Z,1.82
2023-03-05T00:13:08.413Z,1.81
2023-03-05T00:16:14.397Z,1.84
2023-03-05T00:19:17.312Z,1.86
2023-03-05T00:22:20.215Z,1.84
2023-03-05T00:25:23.534Z,1.87
2023-03-05T00:28:26.296Z,1.88
2023-03-05T00:31:32.293Z,1.87
2023-03-05T00:34:36.512Z,1.89
2023-03-05T00:37:39.644Z,1.86
2023-03-05T00:40:42.442Z,1.83
2023-03-05T00:43:45.625Z,1.82
2023-03-05T00:47:18.610Z,1.81
2023-03-05T00:50:21.930Z,1.81
2023-03-05T00:53:24.670Z,1.81
2023-03-05T00:56:33.923Z,1.80
2023-03-05T00:59:37.347Z,1.80
2023-03-05T01:02:40.638Z,1.81
2023-03-05T01:05:43.978Z,1.79
2023-03-05T01:08:46.838Z,1.79
2023-03-05T01:11:49.629Z,1.78
2023-03-05T01:14:52.390Z,1.75
2023-03-05T01:17:55.293Z,1.72
2023-03-05T01:20:58.120Z,1.65
2023-03-05T01:24:00.971Z,1.55
2023-03-05T01:27:03.890Z,1.52
2023-03-05T01:30:08.065Z,1.54
2023-03-05T01:33:10.948Z,1.57
2023-03-05T01:36:17.063Z,1.60
2023-03-05T01:39:20.214Z,1.58
2023-03-05T01:52:25.115Z,1.65
2023-03-05T01:55:29.804Z,1.65
2023-03-05T01:58:32.881Z,1.64
2023-03-05T02:01:42.701Z,1.56
2023-03-05T02:05:11.271Z,1.53
2023-03-05T02:08:20.073Z,1.49
2023-03-05T02:11:22.931Z,1.45
2023-03-05T02:14:27.066Z,1.45
2023-03-05T02:18:23.614Z,1.44
2023-03-05T02:21:41.588Z,1.40
2023-03-05T02:24:44.406Z,1.42
2023-03-05T02:28:03.743Z,1.42
2023-03-05T02:31:10.475Z,1.41
2023-03-05T02:34:13.257Z,1.42
2023-03-05T02:37:15.995Z,1.47
2023-03-05T02:40:19.252Z,1.52
2023-03-05T02:43:22.029Z,1.50
2023-03-05T02:46:24.766Z,1.49
2023-03-05T02:49:28.304Z,1.51
2023-03-05T02:52:31.828Z,1.56
2023-03-05T02:55:35.013Z,1.60
2023-03-05T02:58:37.801Z,1.61
2023-03-05T03:01:40.698Z,1.61
2023-03-05T03:04:44.864Z,1.55
2023-03-05T03:07:47.665Z,1.53
2023-03-05T03:10:50.476Z,1.57
2023-03-05T03:13:53.295Z,1.63
2023-03-05T03:16:56.151Z,1.61
2023-03-05T03:19:59.026Z,1.57
2023-03-05T03:23:02.268Z,1.57
2023-03-05T03:26:05.171Z,1.62
2023-03-05T03:34:04.107Z,1.47
2023-03-05T03:37:08.595Z,1.38
2023-03-05T03:40:12.053Z,1.28
2023-03-05T03:43:14.854Z,1.21
2023-03-05T03:51:39.562Z,0.92
2023-03-05T03:54:42.388Z,0.85
2023-03-05T03:57:45.292Z,0.83
2023-03-05T04:00:48.105Z,0.78
2023-03-05T04:03:50.933Z,0.75
2023-03-05T04:06:54.091Z,0.72
2023-03-05T04:14:52.097Z,0.57
2023-03-05T04:17:54.933Z,0.55
2023-03-05T04:20:57.727Z,0.54
2023-03-05T04:24:00.467Z,0.53
2023-03-05T04:27:03.229Z,0.53
2023-03-05T04:34:38.335Z,0.55
2023-03-05T04:37:41.117Z,0.57
2023-03-05T04:40:45.424Z,0.62
2023-03-05T04:43:48.289Z,0.66
2023-03-05T04:46:51.074Z,0.67
2023-03-05T04:54:41.424Z,0.58
2023-03-05T04:57:44.743Z,0.58
2023-03-05T05:00:47.609Z,0.58
2023-03-05T05:03:50.371Z,0.57
2023-03-05T05:06:56.201Z,0.56
2023-03-05T05:09:58.978Z,0.58
2023-03-05T05:13:02.043Z,0.59
2023-03-05T05:21:16.235Z,0.54
2023-03-05T05:24:18.982Z,0.54
2023-03-05T05:32:18.448Z,0.52
2023-03-05T05:35:22.699Z,0.51
2023-03-05T05:38:25.518Z,0.48
2023-03-05T05:41:28.399Z,0.45
2023-03-05T05:44:31.247Z,0.43
2023-03-05T05:47:34.198Z,0.42
2023-03-05T05:50:39.014Z,0.39
2023-03-05T05:53:43.179Z,0.36
2023-03-05T05:56:45.972Z,0.33
2023-03-05T05:59:48.824Z,0.32
2023-03-05T06:02:51.701Z,0.31
2023-03-05T06:05:54.694Z,0.33
2023-03-05T06:08:57.742Z,0.34
2023-03-05T06:12:00.551Z,0.32
2023-03-05T06:15:03.532Z,0.29
2023-03-05T06:18:06.339Z,0.28
2023-03-05T06:21:13.121Z,0.29
2023-03-05T06:24:16.007Z,0.30
2023-03-05T06:32:07.462Z,0.30
2023-03-05T06:35:10.303Z,0.38
2023-03-05T06:38:13.080Z,0.38
2023-03-05T06:41:19.098Z,0.35
2023-03-05T06:44:21.915Z,0.37
2023-03-05T06:47:24.728Z,0.39
2023-03-05T06:50:27.561Z,0.36
2023-03-05T06:53:30.434Z,0.34
2023-03-05T06:56:36.015Z,0.34
2023-03-05T06:59:38.850Z,0.35
2023-03-05T07:02:41.770Z,0.39
2023-03-05T07:05:44.850Z,0.40
2023-03-05T07:08:48.106Z,0.40
2023-03-05T07:11:50.877Z,0.31
2023-03-05T07:14:53.708Z,0.26
2023-03-05T07:22:33.917Z,0.21
2023-03-05T07:25:38.516Z,0.18
2023-03-05T07:28:44.378Z,0.17
2023-03-05T07:31:47.133Z,0.16
2023-03-05T07:34:49.990Z,0.16
2023-03-05T07:37:54.588Z,0.19
2023-03-05T07:40:57.617Z,0.26
2023-03-05T07:44:00.429Z,0.29
2023-03-05T07:47:03.257Z,0.34
2023-03-05T07:50:06.757Z,0.36
2023-03-05T07:53:09.579Z,0.40
2023-03-05T07:56:42.193Z,0.44
2023-03-05T08:04:34.417Z,0.55
2023-03-05T08:07:37.295Z,0.59
2023-03-05T08:10:40.152Z,0.63
2023-03-05T08:13:44.614Z,0.70
2023-03-05T08:16:48.510Z,0.73
2023-03-05T08:24:52.798Z,0.76
2023-03-05T08:27:55.748Z,0.75
2023-03-05T08:30:58.627Z,0.76
2023-03-05T08:34:02.426Z,0.84
2023-03-05T08:37:06.410Z,0.92
2023-03-05T08:40:10.699Z,0.94
2023-03-05T08:43:13.749Z,0.93
2023-03-05T08:46:17.331Z,0.90
2023-03-05T08:49:20.316Z,0.90
2023-03-05T08:52:23.684Z,0.92
2023-03-05T08:55:26.500Z,0.94
2023-03-05T08:58:29.974Z,0.89
2023-03-05T09:01:33.103Z,0.80
2023-03-05T09:04:37.913Z,0.79
2023-03-05T09:07:41.300Z,0.81
2023-03-05T09:10:45.200Z,0.91
2023-03-05T09:13:48.128Z,0.98
2023-03-05T09:16:50.871Z,1.06
2023-03-05T09:19:53.747Z,1.17
2023-03-05T09:22:56.586Z,1.20
2023-03-05T09:25:59.534Z,1.22
2023-03-05T09:29:02.378Z,1.28
2023-03-05T09:32:05.699Z,1.38
2023-03-05T09:35:09.304Z,1.42
2023-03-05T09:38:12.100Z,1.38
2023-03-05T09:41:17.533Z,1.46
2023-03-05T09:45:07.942Z,1.50
2023-03-05T09:48:23.727Z,1.54
2023-03-05T09:51:31.703Z,1.54
2023-03-05T09:54:42.553Z,1.42
2023-03-05T09:57:51.683Z,1.33
2023-03-05T10:01:45.793Z,1.26
2023-03-05T10:05:41.313Z,1.21
2023-03-05T10:09:22.938Z,1.28
2023-03-05T10:12:43.107Z,1.28
2023-03-05T10:16:08.137Z,1.32
2023-03-05T10:19:37.980Z,1.35
2023-03-05T10:23:16.091Z,1.42
2023-03-05T10:26:54.528Z,1.46
2023-03-05T10:30:17.672Z,1.55
2023-03-05T10:33:26.147Z,1.66
2023-03-05T10:36:56.185Z,1.74
2023-03-05T10:40:17.617Z,1.76
2023-03-05T10:43:45.578Z,1.74
2023-03-05T10:46:50.183Z,1.71
2023-03-05T10:49:55.466Z,1.68
2023-03-05T10:53:10.652Z,1.68
2023-03-05T10:56:15.344Z,1.70
2023-03-05T10:59:18.147Z,1.72
2023-03-05T11:02:23.045Z,1.73
2023-03-05T11:05:47.098Z,1.70
2023-03-05T11:08:50.515Z,1.63
2023-03-05T11:12:16.271Z,1.59
2023-03-05T11:15:26.633Z,1.55
2023-03-05T11:18:34.823Z,1.50
2023-03-05T11:21:37.679Z,1.48
2023-03-05T11:24:41.804Z,1.46
2023-03-05T11:27:54.566Z,1.48
2023-03-05T11:31:04.930Z,1.44
2023-03-05T11:34:24.387Z,1.51
2023-03-05T11:37:29.582Z,1.59
2023-03-05T11:40:36.064Z,1.49
2023-03-05T11:43:43.887Z,1.46
2023-03-05T11:46:50.601Z,1.30
2023-03-05T11:50:00.973Z,1.12
2023-03-05T11:53:14.026Z,0.99
2023-03-05T11:56:25.872Z,1.01
2023-03-05T11:59:35.337Z,1.18
2023-03-05T12:02:38.879Z,1.32
2023-03-05T12:05:45.891Z,1.42
2023-03-05T12:08:54.187Z,1.55
2023-03-05T12:12:43.921Z,1.60
2023-03-05T12:16:08.708Z,1.64
2023-03-05T12:19:23.201Z,1.68
2023-03-05T12:22:34.122Z,1.68
2023-03-05T12:25:50.485Z,1.64
2023-03-05T12:28:55.774Z,1.64
2023-03-05T12:32:02.176Z,1.69
2023-03-05T12:35:23.060Z,1.79
2023-03-05T12:38:31.293Z,1.92
2023-03-05T12:41:34.710Z,2.03
2023-03-05T12:44:39.973Z,2.08
2023-03-05T12:47:43.617Z,2.11
2023-03-05T12:50:51.612Z,2.05
2023-03-05T12:53:54.496Z,1.95
2023-03-05T12:57:00.853Z,1.83
2023-03-05T13:00:12.084Z,1.73
2023-03-05T13:03:31.883Z,1.61
2023-03-05T13:06:36.017Z,1.57
2023-03-05T13:09:38.902Z,1.51
2023-03-05T13:12:53.035Z,1.48
2023-03-05T13:15:57.143Z,1.44
2023-03-05T13:19:01.983Z,1.45
2023-03-05T13:22:11.978Z,1.41
2023-03-05T13:25:20.757Z,1.39
2023-03-05T13:28:24.110Z,1.42
2023-03-05T13:31:26.973Z,1.56
2023-03-05T13:34:46.173Z,1.69
2023-03-05T13:37:50.137Z,1.70
2023-03-05T13:41:05.498Z,1.66
2023-03-05T13:44:22.133Z,1.75
2023-03-05T13:47:31.183Z,1.78
2023-03-05T13:50:36.946Z,1.81
2023-03-05T13:53:39.830Z,1.85
2023-03-05T13:56:55.014Z,1.87
2023-03-05T13:59:57.928Z,1.80
2023-03-05T14:03:20.931Z,1.78
2023-03-05T14:06:27.938Z,1.76
2023-03-05T14:09:44.119Z,1.76
2023-03-05T14:12:50.486Z,1.76
2023-03-05T14:16:14.918Z,1.88
2023-03-05T14:19:39.002Z,2.00
2023-03-05T14:22:44.192Z,2.01
2023-03-05T14:25:47.229Z,1.98
2023-03-05T14:28:56.150Z,1.87
2023-03-05T14:32:28.353Z,1.78
2023-03-05T14:35:58.445Z,1.72
2023-03-05T14:39:05.146Z,1.58
2023-03-05T14:42:15.779Z,1.66
2023-03-05T14:45:21.822Z,1.66
2023-03-05T14:48:24.583Z,1.67
2023-03-05T14:51:27.500Z,1.69
2023-03-05T14:54:36.183Z,1.70
2023-03-05T14:57:41.092Z,1.68
2023-03-05T15:00:44.396Z,1.61
2023-03-05T15:03:47.914Z,1.63
2023-03-05T15:06:51.854Z,1.68
2023-03-05T15:09:54.863Z,1.72
2023-03-05T15:12:57.871Z,1.76
2023-03-05T15:16:01.708Z,1.83
2023-03-05T15:19:04.634Z,1.88
2023-03-05T15:22:09.396Z,1.96
2023-03-05T15:25:12.343Z,2.05
2023-03-05T15:28:15.889Z,2.12
2023-03-05T15:31:18.781Z,2.15
2023-03-05T15:34:21.744Z,2.19
2023-03-05T15:37:26.189Z,2.22
2023-03-05T15:40:29.566Z,2.17
2023-03-05T15:43:32.538Z,2.23
2023-03-05T15:46:35.977Z,2.27
2023-03-05T15:49:40.234Z,2.31
2023-03-05T15:52:43.218Z,2.34
2023-03-05T15:55:46.222Z,2.31
2023-03-05T15:58:50.807Z,2.28
2023-03-05T16:01:53.805Z,2.26
2023-03-05T16:04:56.635Z,2.23
2023-03-05T16:08:00.632Z,2.27
2023-03-05T16:11:04.022Z,2.32
2023-03-05T16:14:09.748Z,2.31
2023-03-05T16:17:14.027Z,2.27
2023-03-05T16:20:20.978Z,2.19
2023-03-05T16:23:24.294Z,1.98
2023-03-05T16:26:27.250Z,1.87
2023-03-05T16:29:32.551Z,1.87
2023-03-05T16:32:38.009Z,1.95
2023-03-05T16:35:41.208Z,2.00
2023-03-05T16:38:44.570Z,2.10
2023-03-05T16:41:48.320Z,2.14
2023-03-05T16:44:51.862Z,2.15
2023-03-05T16:47:56.900Z,2.13
2023-03-05T16:51:00.660Z,2.19
2023-03-05T16:54:04.461Z,2.17
2023-03-05T16:57:10.570Z,2.14
2023-03-05T17:00:14.084Z,2.06
2023-03-05T17:03:17.043Z,2.00
2023-03-05T17:06:23.224Z,1.83
2023-03-05T17:09:26.063Z,1.69
2023-03-05T17:12:28.962Z,1.57
2023-03-05T17:15:34.101Z,1.48
2023-03-05T17:18:37.056Z,1.52
2023-03-05T17:21:42.321Z,1.58
2023-03-05T17:24:47.438Z,1.64
2023-03-05T17:27:51.432Z,1.64
2023-03-05T17:31:00.154Z,1.67
2023-03-05T17:34:03.344Z,1.72
2023-03-05T17:37:06.269Z,1.74
2023-03-05T17:40:15.089Z,1.73
2023-03-05T17:43:19.140Z,1.72
2023-03-05T17:46:22.505Z,1.75
2023-03-05T17:49:25.741Z,1.77
2023-03-05T17:52:28.818Z,1.78
2023-03-05T17:55:32.335Z,1.81
2023-03-05T17:58:35.860Z,1.84
2023-03-05T18:01:38.768Z,1.89
2023-03-05T18:04:43.996Z,1.87
2023-03-05T18:07:47.357Z,1.88
2023-03-05T18:10:50.735Z,1.86
2023-03-05T18:13:53.782Z,1.83
2023-03-05T18:16:58.285Z,1.78
2023-03-05T18:20:04.004Z,1.77
2023-03-05T18:23:07.822Z,1.75
2023-03-05T18:26:10.827Z,1.69
2023-03-05T18:29:15.130Z,1.73
2023-03-05T18:32:26.538Z,1.78
2023-03-05T18:35:30.271Z,1.85
2023-03-05T18:38:33.601Z,1.91
2023-03-05T18:41:37.354Z,1.94
2023-03-05T18:44:41.240Z,1.96
2023-03-05T18:47:44.092Z,1.96
2023-03-05T18:50:52.685Z,1.87
2023-03-05T18:53:57.598Z,1.92
2023-03-05T18:57:00.527Z,1.93
2023-03-05T19:00:03.831Z,1.92
2023-03-05T19:03:07.678Z,1.92
2023-03-05T19:06:10.798Z,1.85
2023-03-05T19:09:44.359Z,1.83
2023-03-05T19:13:40.447Z,1.81
2023-03-05T19:16:44.300Z,1.83
2023-03-05T19:19:54.944Z,1.85
2023-03-05T19:22:58.419Z,1.83
2023-03-05T19:26:02.803Z,1.79
2023-03-05T19:29:06.646Z,1.71
2023-03-05T19:32:12.939Z,1.62
2023-03-05T19:35:17.336Z,1.58
2023-03-05T19:38:20.477Z,1.54
2023-03-05T19:41:23.793Z,1.52
2023-03-05T19:44:30.639Z,1.56
2023-03-05T19:47:33.497Z,1.60
2023-03-05T19:50:36.342Z,1.67
2023-03-05T19:53:40.685Z,1.68
2023-03-05T19:56:45.427Z,1.68
2023-03-05T19:59:52.063Z,1.73
2023-03-05T20:02:55.243Z,1.76
2023-03-05T20:05:58.055Z,1.72
2023-03-05T20:09:02.102Z,1.70
2023-03-05T20:12:05.740Z,1.72
2023-03-05T20:15:08.791Z,1.73
2023-03-05T20:18:11.658Z,1.74
2023-03-05T20:21:21.573Z,1.76
2023-03-05T20:24:24.390Z,1.83
2023-03-05T20:27:27.297Z,1.86
2023-03-05T20:30:30.702Z,1.84
2023-03-05T20:33:33.745Z,1.83
2023-03-05T20:36:37.103Z,1.75
2023-03-05T20:39:40.368Z,1.72
2023-03-05T20:42:43.683Z,1.75
2023-03-05T20:45:47.624Z,1.77
2023-03-05T20:48:53.239Z,1.74
2023-03-05T20:51:56.040Z,1.73
2023-03-05T20:54:59.152Z,1.71
2023-03-05T20:58:02.062Z,1.68
2023-03-05T21:01:05.187Z,1.66
2023-03-05T21:04:08.503Z,1.64
2023-03-05T21:07:11.364Z,1.61
2023-03-05T21:10:16.561Z,1.56
2023-03-05T21:13:19.825Z,1.50
2023-03-05T21:16:25.530Z,1.51
2023-03-05T21:19:28.389Z,1.47
2023-03-05T21:22:32.492Z,1.39
2023-03-05T21:25:35.736Z,1.45
2023-03-05T21:28:40.238Z,1.48
2023-03-05T21:31:43.002Z,1.48
2023-03-05T21:34:45.827Z,1.49
2023-03-05T21:37:48.788Z,1.41
2023-03-05T21:40:54.028Z,1.38
2023-03-05T21:43:57.607Z,1.36
2023-03-05T21:47:00.389Z,1.39
2023-03-05T21:50:06.029Z,1.41
2023-03-05T21:53:09.358Z,1.44
2023-03-05T21:56:26.106Z,1.44
2023-03-05T21:59:28.926Z,1.41
2023-03-05T22:02:32.494Z,1.32
2023-03-05T22:05:35.376Z,1.27
2023-03-05T22:08:42.101Z,1.26
2023-03-05T22:11:45.154Z,1.30
2023-03-05T22:14:48.294Z,1.36
2023-03-05T22:17:51.176Z,1.40
2023-03-05T22:20:55.064Z,1.43
2023-03-05T22:23:58.539Z,1.41
2023-03-05T22:27:02.060Z,1.35
2023-03-05T22:30:05.962Z,1.29
2023-03-05T22:33:09.736Z,1.30
2023-03-05T22:36:12.970Z,1.27
2023-03-05T22:39:15.877Z,1.30
2023-03-05T22:42:18.732Z,1.31
2023-03-05T22:45:21.526Z,1.27
2023-03-05T22:48:24.302Z,1.25
2023-03-05T22:51:27.167Z,1.30
2023-03-05T22:54:30.048Z,1.32
2023-03-05T22:57:33.336Z,1.33
2023-03-05T23:00:36.728Z,1.36
2023-03-05T23:03:40.498Z,1.38
2023-03-05T23:06:43.424Z,1.45
2023-03-05T23:09:51.948Z,1.53
2023-03-05T23:12:56.530Z,1.57
2023-03-05T23:15:59.405Z,1.57
2023-03-05T23:19:02.196Z,1.56
2023-03-05T23:22:07.074Z,1.56
2023-03-05T23:25:10.390Z,1.53
2023-03-05T23:28:13.337Z,1.50
2023-03-05T23:31:19.824Z,1.53
2023-03-05T23:34:23.049Z,1.56
2023-03-05T23:37:25.778Z,1.58
2023-03-05T23:40:34.958Z,1.57
2023-03-05T23:43:37.819Z,1.56
2023-03-05T23:46:40.644Z,1.56
2023-03-05T23:49:43.403Z,1.57
2023-03-05T23:52:46.908Z,1.53
2023-03-05T23:55:50.817Z,1.50
2023-03-05T23:58:56.253Z,1.50
